Time;durP1;ratioP1;P1;durP2;ratioP2;P2;SDS_P1;SDS_P2;PMS_P1;PMS_P2;Temp;Humidity;BMP_temperature;BMP_pressure;BME280_temperature;BME280_humidity;BME280_pressure;Samples;Min_cycle;Max_cycle;Signal;HPM_P1;HPM_P2
2023/03/16 00:02:11;;;;;;;7.32;2.95;;;4.20;99.90;;;;;;5071132;28;20394;-53
2023/03/16 00:04:38;;;;;;;6.05;2.55;;;4.20;99.90;;;;;;5067143;28;20037;-55
2023/03/16 00:07:08;;;;;;;6.47;2.65;;;4.30;99.90;;;;;;5057782;28;20044;-59
2023/03/16 00:09:35;;;;;;;8.38;3.20;;;4.30;99.90;;;;;;5055738;28;20090;-59
2023/03/16 00:12:04;;;;;;;6.47;2.70;;;4.30;99.90;;;;;;5061777;28;20488;-57
2023/03/16 00:14:31;;;;;;;8.45;3.80;;;4.30;99.90;;;;;;5066842;28;20403;-59
2023/03/16 00:16:56;;;;;;;6.18;2.83;;;4.30;99.90;;;;;;5045085;28;20060;-59
2023/03/16 00:19:22;;;;;;;8.25;3.13;;;4.30;99.90;;;;;;5060602;28;20036;-59
2023/03/16 00:21:51;;;;;;;4.57;2.70;;;4.20;99.90;;;;;;5047414;28;20564;-56
2023/03/16 00:24:18;;;;;;;7.55;2.88;;;4.30;99.90;;;;;;5059301;28;20044;-58
2023/03/16 00:26:45;;;;;;;6.22;2.90;;;4.30;99.90;;;;;;5063917;28;20033;-59
2023/03/16 00:29:11;;;;;;;6.38;2.90;;;4.30;99.90;;;;;;5069972;22;20080;-56
2023/03/16 00:31:38;;;;;;;6.20;3.10;;;4.30;99.90;;;;;;5006922;28;20750;-57
2023/03/16 00:34:05;;;;;;;7.57;3.35;;;4.40;99.90;;;;;;5031336;28;20405;-57
2023/03/16 00:36:32;;;;;;;10.27;3.10;;;4.30;99.90;;;;;;5034926;28;20510;-56
2023/03/16 00:38:58;;;;;;;6.90;3.40;;;4.40;99.90;;;;;;5026734;28;20068;-56
2023/03/16 00:41:24;;;;;;;10.30;3.33;;;4.40;99.90;;;;;;5039297;28;20072;-57
2023/03/16 00:43:50;;;;;;;7.35;3.20;;;4.40;99.90;;;;;;5032582;28;20052;-56
2023/03/16 00:46:17;;;;;;;6.05;3.45;;;4.40;99.90;;;;;;5032775;28;20086;-57
2023/03/16 00:48:46;;;;;;;10.40;3.40;;;4.40;99.90;;;;;;5042355;28;20078;-56
2023/03/16 00:51:15;;;;;;;8.50;3.83;;;4.40;99.90;;;;;;5035522;28;20053;-55
2023/03/16 00:53:42;;;;;;;6.35;3.20;;;4.40;99.90;;;;;;5027811;28;20052;-58
2023/03/16 00:56:12;;;;;;;7.05;2.88;;;4.50;99.90;;;;;;5023293;28;20043;-58
2023/03/16 00:58:41;;;;;;;6.47;3.28;;;4.50;99.90;;;;;;5019518;28;20088;-58
2023/03/16 01:01:18;;;;;;;5.57;3.40;;;4.40;99.90;;;;;;5035863;28;20056;-57
2023/03/16 01:03:45;;;;;;;6.05;3.25;;;4.50;99.90;;;;;;5017186;28;20036;-58
2023/03/16 01:06:15;;;;;;;6.68;3.22;;;4.50;99.90;;;;;;5052519;28;20039;-59
2023/03/16 01:08:42;;;;;;;5.30;3.13;;;4.50;99.90;;;;;;5043265;28;20044;-57
2023/03/16 01:11:15;;;;;;;6.97;2.92;;;4.40;99.90;;;;;;5026039;28;20939;-56
2023/03/16 01:13:41;;;;;;;9.70;3.83;;;4.40;99.90;;;;;;5019140;28;20802;-57
2023/03/16 01:16:07;;;;;;;6.68;2.90;;;4.40;99.90;;;;;;5042005;28;20318;-58
2023/03/16 01:18:33;;;;;;;8.23;3.40;;;4.40;99.90;;;;;;5015695;28;20386;-59
2023/03/16 01:21:04;;;;;;;5.45;2.90;;;4.40;99.90;;;;;;5026327;28;20075;-59
2023/03/16 01:23:33;;;;;;;6.68;3.70;;;4.40;99.90;;;;;;5012467;28;20079;-59
2023/03/16 01:26:02;;;;;;;7.75;3.25;;;4.30;99.90;;;;;;5024513;28;20567;-58
2023/03/16 01:28:30;;;;;;;8.40;3.17;;;4.30;99.90;;;;;;5033711;28;20056;-58
2023/03/16 01:31:04;;;;;;;8.50;4.13;;;4.30;99.90;;;;;;5030831;28;20057;-58
2023/03/16 01:33:29;;;;;;;4.93;3.30;;;4.30;99.90;;;;;;5010000;28;20136;-58
2023/03/16 01:36:04;;;;;;;8.52;3.78;;;4.30;99.90;;;;;;5051128;28;20139;-57
2023/03/16 01:38:30;;;;;;;7.45;3.28;;;4.30;99.90;;;;;;5022171;28;20521;-58
2023/03/16 01:40:56;;;;;;;6.05;3.22;;;4.30;99.90;;;;;;5046456;28;20052;-58
2023/03/16 01:43:24;;;;;;;6.57;3.70;;;4.30;99.90;;;;;;5048158;28;20095;-57
2023/03/16 01:46:05;;;;;;;7.18;3.30;;;4.20;99.90;;;;;;5053790;28;20117;-59
2023/03/16 01:48:50;;;;;;;6.35;3.40;;;4.30;99.90;;;;;;5040513;28;20404;-57
2023/03/16 01:51:19;;;;;;;9.32;3.63;;;4.30;99.90;;;;;;5041898;28;20045;-57
2023/03/16 01:53:48;;;;;;;4.78;2.92;;;4.30;99.90;;;;;;5041481;28;20377;-56
2023/03/16 01:56:28;;;;;;;11.38;3.55;;;4.30;99.90;;;;;;5007815;28;20430;-57
2023/03/16 01:58:58;;;;;;;5.63;3.00;;;4.30;99.90;;;;;;5021687;28;20049;-58
2023/03/16 02:01:26;;;;;;;7.55;3.20;;;4.30;99.90;;;;;;5026238;28;20143;-57
2023/03/16 02:03:56;;;;;;;4.78;3.10;;;4.30;99.90;;;;;;5040902;28;20037;-57
2023/03/16 02:06:22;;;;;;;7.28;3.22;;;4.40;99.90;;;;;;5039194;28;20057;-59
2023/03/16 02:08:49;;;;;;;4.70;3.45;;;4.40;99.90;;;;;;5036482;28;20056;-58
2023/03/16 02:11:21;;;;;;;5.05;3.33;;;4.40;99.90;;;;;;5029558;28;20090;-58
2023/03/16 02:13:48;;;;;;;6.68;2.88;;;4.40;99.90;;;;;;5046766;28;20045;-58
2023/03/16 02:16:18;;;;;;;7.63;3.45;;;4.50;99.90;;;;;;5033712;28;20492;-58
2023/03/16 02:18:49;;;;;;;10.98;3.38;;;4.50;99.90;;;;;;5045219;28;20029;-57
2023/03/16 02:21:54;;;;;;;5.13;3.53;;;4.60;99.90;;;;;;5026058;28;20410;-58
2023/03/16 02:24:21;;;;;;;5.97;3.10;;;4.60;99.90;;;;;;4996543;28;20049;-58
2023/03/16 02:27:03;;;;;;;10.32;3.78;;;4.60;99.90;;;;;;5032237;28;20051;-58
2023/03/16 02:30:00;;;;;;;6.53;3.60;;;4.60;99.90;;;;;;5041107;28;20049;-57
2023/03/16 02:32:28;;;;;;;5.35;3.42;;;4.60;99.90;;;;;;5020772;28;20160;-58
2023/03/16 02:34:54;;;;;;;8.07;3.67;;;4.70;99.90;;;;;;5032314;28;20079;-58
2023/03/16 02:37:20;;;;;;;6.50;2.97;;;4.70;99.90;;;;;;5048031;28;20036;-57
2023/03/16 02:39:46;;;;;;;5.18;3.78;;;4.70;99.90;;;;;;5039107;28;20057;-57
2023/03/16 02:42:18;;;;;;;9.85;4.10;;;4.70;99.90;;;;;;5040360;28;20370;-58
2023/03/16 02:44:48;;;;;;;8.88;4.38;;;4.80;99.90;;;;;;5031055;28;20060;-56
2023/03/16 02:47:33;;;;;;;9.95;3.60;;;4.80;99.90;;;;;;5047467;28;20037;-59
2023/03/16 02:50:00;;;;;;;6.97;3.50;;;4.80;99.90;;;;;;5025021;28;20052;-58
2023/03/16 02:52:26;;;;;;;6.78;3.92;;;4.80;99.90;;;;;;5035229;28;20484;-55
2023/03/16 02:54:52;;;;;;;5.35;3.20;;;4.80;99.90;;;;;;5010187;28;20041;-59
2023/03/16 02:57:17;;;;;;;5.90;3.35;;;4.80;99.90;;;;;;5041192;28;20040;-57
2023/03/16 02:59:43;;;;;;;7.20;3.90;;;4.80;99.90;;;;;;5044342;28;20048;-57
2023/03/16 03:02:10;;;;;;;6.78;3.67;;;4.90;99.90;;;;;;5021181;28;20656;-58
2023/03/16 03:04:35;;;;;;;7.72;3.65;;;4.90;99.90;;;;;;5025434;28;20045;-56
2023/03/16 03:07:03;;;;;;;5.97;3.10;;;4.80;99.90;;;;;;5040253;28;20049;-58
2023/03/16 03:09:31;;;;;;;10.57;4.22;;;4.90;99.90;;;;;;5033547;28;20049;-58
2023/03/16 03:11:58;;;;;;;7.47;3.80;;;4.90;99.90;;;;;;5037161;28;20053;-59
2023/03/16 03:14:27;;;;;;;9.57;3.72;;;4.90;99.90;;;;;;5008437;28;20042;-58
2023/03/16 03:16:53;;;;;;;8.98;3.83;;;4.90;99.90;;;;;;5010945;28;20047;-57
2023/03/16 03:19:19;;;;;;;9.50;3.78;;;4.90;99.90;;;;;;5042590;28;20041;-58
2023/03/16 03:21:44;;;;;;;6.65;3.67;;;4.90;99.90;;;;;;5022895;28;20064;-57
2023/03/16 03:24:10;;;;;;;6.78;3.42;;;4.90;99.90;;;;;;5025420;28;20503;-58
2023/03/16 03:26:39;;;;;;;9.10;4.10;;;4.90;99.90;;;;;;5031209;28;20052;-57
2023/03/16 03:29:05;;;;;;;6.40;3.75;;;4.90;99.90;;;;;;5043363;28;20041;-57
2023/03/16 03:31:30;;;;;;;6.70;4.30;;;4.90;99.90;;;;;;5041763;28;20033;-58
2023/03/16 03:33:56;;;;;;;7.85;3.75;;;4.90;99.90;;;;;;5049495;28;20044;-57
2023/03/16 03:36:22;;;;;;;7.10;4.00;;;5.00;99.90;;;;;;5018889;28;20116;-57
2023/03/16 03:38:53;;;;;;;6.45;3.55;;;5.00;99.90;;;;;;5008632;28;20408;-57
2023/03/16 03:41:21;;;;;;;12.23;3.85;;;4.90;99.90;;;;;;5050054;28;20131;-57
2023/03/16 03:43:46;;;;;;;6.60;4.07;;;5.00;99.90;;;;;;5043165;28;20060;-57
2023/03/16 03:46:12;;;;;;;6.50;4.22;;;5.00;99.90;;;;;;5033109;28;20032;-57
2023/03/16 03:48:38;;;;;;;5.95;4.00;;;4.90;99.90;;;;;;5041981;28;20436;-58
2023/03/16 03:51:04;;;;;;;8.32;4.65;;;5.00;99.90;;;;;;5050745;28;20037;-58
2023/03/16 03:53:30;;;;;;;6.18;4.18;;;5.00;99.90;;;;;;5049441;28;20044;-58
2023/03/16 03:55:55;;;;;;;8.57;4.68;;;5.00;99.90;;;;;;5045026;28;20396;-58
2023/03/16 03:58:21;;;;;;;6.38;4.10;;;5.00;99.90;;;;;;5035182;28;20047;-59
2023/03/16 04:00:47;;;;;;;5.95;3.80;;;5.00;99.90;;;;;;5048031;28;20037;-58
2023/03/16 04:03:13;;;;;;;7.30;4.40;;;5.00;99.90;;;;;;5040509;28;20045;-57
2023/03/16 04:05:39;;;;;;;8.00;4.18;;;5.00;99.90;;;;;;5047480;28;20049;-56
2023/03/16 04:08:05;;;;;;;7.28;4.35;;;5.00;99.90;;;;;;5049945;28;20079;-58
2023/03/16 04:10:31;;;;;;;10.65;5.05;;;5.00;99.90;;;;;;5027967;28;20454;-57
2023/03/16 04:12:57;;;;;;;6.88;4.68;;;5.00;99.90;;;;;;5042198;28;20038;-57
2023/03/16 04:15:26;;;;;;;7.25;3.85;;;5.00;99.90;;;;;;5045580;28;20063;-58
2023/03/16 04:17:52;;;;;;;7.30;4.28;;;5.00;99.90;;;;;;5049938;28;20045;-57
2023/03/16 04:20:18;;;;;;;6.32;4.03;;;5.00;99.90;;;;;;5043656;28;20051;-56
2023/03/16 04:22:46;;;;;;;6.65;4.00;;;5.00;99.90;;;;;;5029962;28;20040;-58
2023/03/16 04:25:14;;;;;;;9.65;4.63;;;5.00;99.90;;;;;;5042575;28;20467;-57
2023/03/16 04:27:45;;;;;;;8.88;4.07;;;5.00;99.90;;;;;;5044734;28;20044;-56
2023/03/16 04:30:13;;;;;;;8.52;4.45;;;4.90;99.90;;;;;;5007869;28;20079;-57
2023/03/16 04:32:40;;;;;;;7.57;4.88;;;5.00;99.90;;;;;;5046542;28;20120;-57
2023/03/16 04:35:06;;;;;;;6.47;4.18;;;5.00;99.90;;;;;;5030885;28;20059;-58
2023/03/16 04:37:33;;;;;;;6.78;4.65;;;5.00;99.90;;;;;;5049516;28;20066;-57
2023/03/16 04:39:59;;;;;;;7.43;4.53;;;5.00;99.90;;;;;;5027501;28;20546;-58
2023/03/16 04:42:25;;;;;;;7.30;4.30;;;5.00;99.90;;;;;;5035395;28;20029;-58
2023/03/16 04:44:50;;;;;;;7.57;4.18;;;5.00;99.90;;;;;;5029161;28;20045;-56
2023/03/16 04:47:17;;;;;;;9.55;4.85;;;5.00;99.90;;;;;;5046757;28;20152;-59
2023/03/16 04:49:44;;;;;;;8.15;5.25;;;5.00;99.90;;;;;;5028639;28;21340;-58
2023/03/16 04:52:10;;;;;;;9.55;4.93;;;5.00;99.90;;;;;;5045630;28;20499;-58
2023/03/16 04:54:35;;;;;;;7.95;5.22;;;4.90;99.90;;;;;;5052690;28;20048;-58
2023/03/16 04:57:02;;;;;;;7.32;4.97;;;4.90;99.90;;;;;;5042188;28;20079;-58
2023/03/16 04:59:28;;;;;;;10.85;5.53;;;4.90;99.90;;;;;;5031631;28;20157;-58
2023/03/16 05:01:54;;;;;;;6.65;5.10;;;4.90;99.90;;;;;;5040687;28;20053;-56
2023/03/16 05:04:23;;;;;;;8.27;5.20;;;4.90;99.90;;;;;;5046325;28;20192;-57
2023/03/16 05:06:49;;;;;;;8.57;5.35;;;4.90;99.90;;;;;;5020981;28;20107;-57
2023/03/16 05:09:15;;;;;;;8.82;5.13;;;4.90;99.90;;;;;;5047960;28;20047;-55
2023/03/16 05:11:40;;;;;;;7.30;5.40;;;4.90;99.90;;;;;;5053923;28;20032;-57
2023/03/16 05:14:06;;;;;;;7.82;5.13;;;5.00;99.90;;;;;;5030468;28;20048;-57
2023/03/16 05:16:32;;;;;;;9.00;5.13;;;4.90;99.90;;;;;;5047405;28;20476;-57
2023/03/16 05:19:01;;;;;;;9.07;5.90;;;4.90;99.90;;;;;;5023857;28;20048;-57
2023/03/16 05:21:30;;;;;;;8.90;6.50;;;4.90;99.90;;;;;;5046190;28;21900;-57
2023/03/16 05:23:56;;;;;;;9.85;6.18;;;4.90;99.90;;;;;;5032569;28;20516;-58
2023/03/16 05:26:25;;;;;;;9.90;5.65;;;4.90;99.90;;;;;;5021633;28;20051;-58
2023/03/16 05:28:51;;;;;;;8.32;6.30;;;4.80;99.90;;;;;;5034811;28;20051;-58
2023/03/16 05:31:17;;;;;;;9.63;5.95;;;5.00;99.90;;;;;;5034834;28;20029;-57
2023/03/16 05:33:43;;;;;;;8.68;5.70;;;4.90;99.90;;;;;;5038513;28;20033;-57
2023/03/16 05:36:10;;;;;;;10.32;6.68;;;4.90;99.90;;;;;;5020331;28;20051;-58
2023/03/16 05:38:38;;;;;;;12.75;6.95;;;4.80;99.90;;;;;;5048877;28;20642;-58
2023/03/16 05:41:04;;;;;;;10.50;6.05;;;4.80;99.90;;;;;;5030934;28;20048;-58
2023/03/16 05:43:30;;;;;;;9.63;5.85;;;4.80;99.90;;;;;;5049399;28;20057;-58
2023/03/16 05:45:56;;;;;;;15.45;7.07;;;4.80;99.90;;;;;;5038272;28;20163;-58
2023/03/16 05:48:25;;;;;;;11.18;6.45;;;4.80;99.90;;;;;;5047713;28;20072;-58
2023/03/16 05:50:51;;;;;;;10.50;6.30;;;4.80;99.90;;;;;;5021227;28;20057;-57
2023/03/16 05:53:17;;;;;;;10.98;6.75;;;4.80;99.90;;;;;;5027393;28;20049;-56
2023/03/16 05:55:43;;;;;;;9.95;6.50;;;4.80;99.90;;;;;;5031934;28;20065;-56
2023/03/16 05:58:10;;;;;;;9.57;6.25;;;4.70;99.90;;;;;;5041727;28;20675;-57
2023/03/16 06:00:38;;;;;;;13.82;6.75;;;4.70;99.90;;;;;;5038793;28;20120;-58
2023/03/16 06:03:04;;;;;;;10.15;6.88;;;4.70;99.90;;;;;;5018829;28;20040;-57
2023/03/16 06:05:30;;;;;;;9.63;6.57;;;4.70;99.90;;;;;;5032108;28;20083;-58
2023/03/16 06:07:56;;;;;;;12.18;6.25;;;4.70;99.90;;;;;;5043608;28;20102;-58
2023/03/16 06:10:22;;;;;;;11.77;6.72;;;4.80;99.90;;;;;;5045850;28;20045;-58
2023/03/16 06:12:51;;;;;;;10.90;7.32;;;4.80;99.90;;;;;;5013208;28;20495;-57
2023/03/16 06:15:17;;;;;;;11.52;7.70;;;4.80;99.90;;;;;;5034250;28;20060;-59
2023/03/16 06:17:43;;;;;;;12.98;6.40;;;4.80;99.90;;;;;;5022269;28;20116;-59
2023/03/16 06:20:11;;;;;;;13.10;6.97;;;4.80;99.90;;;;;;5028278;28;20123;-58
2023/03/16 06:22:38;;;;;;;11.77;6.95;;;4.80;99.90;;;;;;5028319;28;20044;-59
2023/03/16 06:25:05;;;;;;;12.38;7.47;;;4.80;99.90;;;;;;5026530;28;20075;-57
2023/03/16 06:27:31;;;;;;;9.45;6.45;;;4.80;99.90;;;;;;5027637;28;20123;-57
2023/03/16 06:29:56;;;;;;;18.95;7.22;;;4.80;99.90;;;;;;5032619;22;20108;-58
2023/03/16 06:32:22;;;;;;;11.10;6.57;;;4.80;99.90;;;;;;5007515;28;20048;-55
2023/03/16 06:34:48;;;;;;;9.77;6.97;;;4.80;99.90;;;;;;4949306;28;20320;-57
2023/03/16 06:37:13;;;;;;;11.23;7.53;;;4.80;99.90;;;;;;4970951;28;20084;-58
2023/03/16 06:39:39;;;;;;;12.25;6.68;;;4.80;99.90;;;;;;4998716;28;20133;-57
2023/03/16 06:42:05;;;;;;;9.65;7.07;;;4.90;99.90;;;;;;5010359;28;20033;-57
2023/03/16 06:44:31;;;;;;;14.60;6.43;;;4.90;99.90;;;;;;5010422;28;20081;-56
2023/03/16 06:46:57;;;;;;;12.57;6.90;;;4.90;99.90;;;;;;5008043;28;20420;-57
2023/03/16 06:49:23;;;;;;;10.50;6.53;;;4.90;99.90;;;;;;4977125;28;20048;-55
2023/03/16 06:51:48;;;;;;;10.18;6.65;;;4.90;99.90;;;;;;4977303;28;20401;-57
2023/03/16 06:54:14;;;;;;;14.23;6.60;;;4.90;99.90;;;;;;4984164;28;20133;-57
2023/03/16 06:56:40;;;;;;;11.48;6.85;;;4.90;99.90;;;;;;5004745;28;20093;-57
2023/03/16 06:59:06;;;;;;;12.65;6.60;;;5.00;99.90;;;;;;4986577;28;20042;-58
2023/03/16 07:01:32;;;;;;;9.88;6.18;;;4.90;99.90;;;;;;5001084;28;20056;-58
2023/03/16 07:03:57;;;;;;;10.18;6.10;;;5.00;99.90;;;;;;4987549;28;20042;-57
2023/03/16 07:06:23;;;;;;;10.50;6.50;;;5.00;99.90;;;;;;4989756;28;20037;-56
2023/03/16 07:08:49;;;;;;;10.70;6.10;;;5.00;99.90;;;;;;4990926;28;20038;-56
2023/03/16 07:11:15;;;;;;;10.73;6.15;;;5.00;99.90;;;;;;4998438;28;20066;-58
2023/03/16 07:13:41;;;;;;;10.32;6.00;;;5.00;99.90;;;;;;4987441;28;20033;-56
2023/03/16 07:16:07;;;;;;;12.48;6.32;;;5.00;99.90;;;;;;4976725;28;20034;-56
2023/03/16 07:18:33;;;;;;;13.98;6.45;;;5.10;99.90;;;;;;5006917;28;20496;-56
2023/03/16 07:20:58;;;;;;;10.73;6.20;;;5.10;99.90;;;;;;5008303;28;20046;-54
2023/03/16 07:23:25;;;;;;;9.82;5.80;;;5.10;99.90;;;;;;4997364;28;20450;-57
2023/03/16 07:25:51;;;;;;;11.00;6.45;;;5.10;99.90;;;;;;4992382;28;20405;-55
2023/03/16 07:28:18;;;;;;;11.18;6.43;;;5.10;99.90;;;;;;5006521;28;20497;-57
2023/03/16 07:30:45;;;;;;;8.35;5.47;;;5.20;99.90;;;;;;4966972;28;20867;-57
2023/03/16 07:33:11;;;;;;;9.60;5.82;;;5.20;99.90;;;;;;4986346;28;20048;-54
2023/03/16 07:35:37;;;;;;;10.60;6.30;;;5.20;99.90;;;;;;5008169;28;20282;-56
2023/03/16 07:38:03;;;;;;;11.13;6.63;;;5.20;99.90;;;;;;5007123;28;20477;-58
2023/03/16 07:40:29;;;;;;;10.55;5.90;;;5.20;99.90;;;;;;4972389;28;20049;-55
2023/03/16 07:42:55;;;;;;;9.40;6.10;;;5.20;99.90;;;;;;5000234;28;20045;-57
2023/03/16 07:45:21;;;;;;;10.25;6.55;;;5.20;99.90;;;;;;4991829;28;20049;-57
2023/03/16 07:47:47;;;;;;;10.52;6.15;;;5.20;99.90;;;;;;4995804;28;20053;-58
2023/03/16 07:50:15;;;;;;;13.07;7.00;;;5.20;99.90;;;;;;5011486;28;20472;-58
2023/03/16 07:52:41;;;;;;;9.20;5.90;;;5.30;99.90;;;;;;4987188;28;20160;-57
2023/03/16 07:55:07;;;;;;;9.20;5.65;;;5.30;99.90;;;;;;4991571;28;20464;-58
2023/03/16 07:57:33;;;;;;;10.00;5.85;;;5.30;99.90;;;;;;5012493;28;20054;-57
2023/03/16 07:59:59;;;;;;;9.10;6.25;;;5.30;99.90;;;;;;5016141;28;20049;-56
2023/03/16 08:02:24;;;;;;;11.85;5.47;;;5.20;99.90;;;;;;4989935;28;20049;-58
2023/03/16 08:04:50;;;;;;;11.18;6.10;;;5.30;99.90;;;;;;5010902;28;20461;-57
2023/03/16 08:07:19;;;;;;;11.15;5.70;;;5.30;99.90;;;;;;4993273;28;20046;-56
2023/03/16 08:09:45;;;;;;;10.20;5.53;;;5.30;99.90;;;;;;4995477;28;21190;-57
2023/03/16 08:12:11;;;;;;;9.98;5.65;;;5.30;99.90;;;;;;5003841;28;20041;-57
2023/03/16 08:14:37;;;;;;;17.63;6.88;;;5.30;99.90;;;;;;4992916;28;20037;-58
2023/03/16 08:17:04;;;;;;;9.75;6.28;;;5.30;99.90;;;;;;5004899;28;20034;-58
2023/03/16 08:19:31;;;;;;;10.20;6.18;;;5.30;99.90;;;;;;4989517;28;20078;-55
2023/03/16 08:21:59;;;;;;;11.00;5.68;;;5.40;99.90;;;;;;4999551;28;20049;-58
2023/03/16 08:24:26;;;;;;;10.48;6.32;;;5.40;99.90;;;;;;4988415;28;20057;-56
2023/03/16 08:26:52;;;;;;;10.07;6.50;;;5.40;99.90;;;;;;4985418;28;20058;-56
2023/03/16 08:29:19;;;;;;;9.38;6.22;;;5.40;99.90;;;;;;5007749;28;20595;-56
2023/03/16 08:31:45;;;;;;;10.80;6.03;;;5.40;99.90;;;;;;4998744;28;20147;-57
2023/03/16 08:34:11;;;;;;;11.02;5.82;;;5.40;99.90;;;;;;5002773;28;20037;-57
2023/03/16 08:36:37;;;;;;;12.63;5.70;;;5.40;99.90;;;;;;4977641;28;20037;-58
2023/03/16 08:39:04;;;;;;;10.45;5.50;;;5.40;99.90;;;;;;5004124;28;20088;-57
2023/03/16 08:41:31;;;;;;;9.90;6.45;;;5.40;99.90;;;;;;5002483;28;20146;-58
2023/03/16 08:43:58;;;;;;;12.38;5.68;;;5.40;99.90;;;;;;5004735;28;20048;-56
2023/03/16 08:46:24;;;;;;;10.32;5.65;;;5.40;99.90;;;;;;4984775;28;20092;-58
2023/03/16 08:48:51;;;;;;;9.68;6.40;;;5.40;99.90;;;;;;5005356;28;20038;-56
2023/03/16 08:51:18;;;;;;;9.40;6.15;;;5.40;99.90;;;;;;5001495;28;20519;-56
2023/03/16 08:53:44;;;;;;;10.63;6.20;;;5.50;99.90;;;;;;4984906;28;20037;-58
2023/03/16 08:56:13;;;;;;;9.30;5.30;;;5.40;99.90;;;;;;4989331;28;20100;-57
2023/03/16 08:58:44;;;;;;;9.13;5.70;;;5.40;99.90;;;;;;4999695;28;20061;-57
2023/03/16 09:01:14;;;;;;;11.02;5.28;;;5.50;99.90;;;;;;4993789;28;20045;-57
2023/03/16 09:03:41;;;;;;;11.55;5.60;;;5.50;99.90;;;;;;5009614;28;20122;-55
2023/03/16 09:06:12;;;;;;;7.50;4.97;;;5.50;99.90;;;;;;5001529;28;20041;-57
2023/03/16 09:08:39;;;;;;;9.93;5.72;;;5.50;99.90;;;;;;5003979;28;20034;-55
2023/03/16 09:11:14;;;;;;;8.32;5.22;;;5.50;99.90;;;;;;5013112;28;20108;-56
2023/03/16 09:13:40;;;;;;;10.70;5.68;;;5.60;99.90;;;;;;5010824;28;20480;-56
2023/03/16 09:16:08;;;;;;;8.00;5.57;;;5.60;99.90;;;;;;5011384;28;20560;-57
2023/03/16 09:18:35;;;;;;;8.25;5.05;;;5.60;99.90;;;;;;4986701;28;20104;-57
2023/03/16 09:21:05;;;;;;;8.90;5.63;;;5.60;99.90;;;;;;5011407;28;20054;-57
2023/03/16 09:23:33;;;;;;;9.68;4.93;;;5.70;99.90;;;;;;4999952;28;20235;-58
2023/03/16 09:26:00;;;;;;;8.52;5.22;;;5.70;99.90;;;;;;5005651;28;20045;-56
2023/03/16 09:28:30;;;;;;;9.27;5.00;;;5.70;99.90;;;;;;5004557;28;20049;-57
2023/03/16 09:30:57;;;;;;;13.18;5.85;;;5.80;99.90;;;;;;5005863;28;20515;-56
2023/03/16 09:33:24;;;;;;;9.48;5.75;;;5.80;99.90;;;;;;4975910;28;20140;-58
2023/03/16 09:35:54;;;;;;;8.38;5.57;;;5.80;99.90;;;;;;5006950;28;20515;-57
2023/03/16 09:38:20;;;;;;;8.68;5.75;;;5.80;99.90;;;;;;5003446;28;20030;-57
2023/03/16 09:40:50;;;;;;;11.82;5.57;;;5.90;99.90;;;;;;5001359;28;20661;-57
2023/03/16 09:43:48;;;;;;;10.20;4.72;;;5.90;99.90;;;;;;5006373;28;20037;-54
2023/03/16 09:46:14;;;;;;;8.43;5.07;;;5.90;99.90;;;;;;4994147;28;20042;-56
2023/03/16 09:48:40;;;;;;;12.98;6.43;;;5.90;99.90;;;;;;4971411;28;20055;-57
2023/03/16 09:51:36;;;;;;;10.02;5.03;;;5.90;99.90;;;;;;4995707;28;20046;-56
2023/03/16 09:54:08;;;;;;;9.63;4.78;;;5.90;99.90;;;;;;4990474;28;20105;-57
2023/03/16 09:56:42;;;;;;;8.68;4.93;;;5.90;99.90;;;;;;4996006;28;20045;-56
2023/03/16 09:59:12;;;;;;;8.27;4.57;;;6.00;99.90;;;;;;5001925;28;20117;-56
2023/03/16 10:01:56;;;;;;;8.95;4.57;;;6.00;99.90;;;;;;4994542;28;20504;-56
2023/03/16 10:04:54;;;;;;;7.03;4.50;;;6.00;99.90;;;;;;4987291;28;20453;-57
2023/03/16 10:07:54;;;;;;;7.07;4.43;;;6.00;99.90;;;;;;5001448;28;20033;-56
2023/03/16 10:10:35;;;;;;;8.20;4.03;;;6.00;99.90;;;;;;5002222;28;20038;-56
2023/03/16 10:13:04;;;;;;;6.20;4.25;;;6.10;99.90;;;;;;5001574;28;20117;-57
2023/03/16 10:15:34;;;;;;;9.23;3.90;;;6.10;99.90;;;;;;4981382;28;20404;-57
2023/03/16 10:18:19;;;;;;;8.15;4.60;;;6.10;99.90;;;;;;5003158;28;20030;-57
2023/03/16 10:20:46;;;;;;;7.95;4.07;;;6.10;99.90;;;;;;4998442;28;20046;-56
2023/03/16 10:23:25;;;;;;;6.70;4.00;;;6.20;99.90;;;;;;4988296;28;20508;-56
2023/03/16 10:25:54;;;;;;;7.57;3.92;;;6.20;99.90;;;;;;4998621;28;20601;-56
2023/03/16 10:28:26;;;;;;;7.95;4.38;;;6.10;99.90;;;;;;4991893;28;20065;-56
2023/03/16 10:30:54;;;;;;;6.22;4.45;;;6.20;99.90;;;;;;5010511;28;20116;-56
2023/03/16 10:33:29;;;;;;;8.98;4.78;;;6.20;99.90;;;;;;4979197;28;20041;-55
2023/03/16 10:36:02;;;;;;;7.80;4.25;;;6.20;99.90;;;;;;4979217;28;20038;-57
2023/03/16 10:38:51;;;;;;;6.90;4.25;;;6.30;99.90;;;;;;4993985;28;20052;-54
2023/03/16 10:41:17;;;;;;;7.80;4.40;;;6.20;99.90;;;;;;4979712;28;20516;-56
2023/03/16 10:43:48;;;;;;;8.18;4.78;;;6.30;99.90;;;;;;5009633;28;20041;-56
2023/03/16 10:46:14;;;;;;;9.35;4.80;;;6.40;99.90;;;;;;4989882;28;20183;-54
2023/03/16 10:48:40;;;;;;;8.77;4.72;;;6.40;99.90;;;;;;5007399;28;20040;-53
2023/03/16 10:51:14;;;;;;;8.50;4.78;;;6.50;99.90;;;;;;4999229;28;20107;-55
2023/03/16 10:53:43;;;;;;;8.73;4.20;;;6.60;99.90;;;;;;5002496;28;20096;-55
2023/03/16 10:56:34;;;;;;;8.73;4.47;;;6.60;99.90;;;;;;4981729;28;20042;-55
2023/03/16 10:59:00;;;;;;;7.25;4.40;;;6.70;99.90;;;;;;5001507;28;20065;-54
2023/03/16 11:01:30;;;;;;;6.95;4.43;;;6.80;99.90;;;;;;4987308;28;20038;-54
2023/03/16 11:03:57;;;;;;;6.60;3.35;;;6.90;99.90;;;;;;4973815;28;20052;-52
2023/03/16 11:06:31;;;;;;;11.68;4.30;;;6.90;99.90;;;;;;5006283;28;20112;-54
2023/03/16 11:09:13;;;;;;;10.07;4.05;;;7.00;99.90;;;;;;5003608;28;20072;-52
2023/03/16 11:11:47;;;;;;;6.88;3.92;;;7.00;99.90;;;;;;4990989;28;20061;-52
2023/03/16 11:14:16;;;;;;;6.82;3.80;;;7.00;99.90;;;;;;4977266;28;20104;-53
2023/03/16 11:17:11;;;;;;;8.55;3.80;;;7.10;99.90;;;;;;5005646;28;20038;-56
2023/03/16 11:20:04;;;;;;;8.55;3.90;;;7.10;99.90;;;;;;4993591;28;20034;-55
2023/03/16 11:22:30;;;;;;;6.75;3.83;;;7.10;99.90;;;;;;5005505;28;20050;-57
2023/03/16 11:25:01;;;;;;;7.20;3.70;;;7.20;99.90;;;;;;5007282;28;20108;-55
2023/03/16 11:27:48;;;;;;;8.55;4.28;;;7.20;99.90;;;;;;4985674;28;20049;-54
2023/03/16 11:30:53;;;;;;;6.80;4.03;;;7.30;99.90;;;;;;5010308;28;20041;-58
2023/03/16 11:33:20;;;;;;;7.30;4.00;;;7.40;99.90;;;;;;4988117;28;20037;-56
2023/03/16 11:36:10;;;;;;;7.13;4.30;;;7.40;99.90;;;;;;5012299;28;20033;-58
2023/03/16 11:38:46;;;;;;;7.90;4.15;;;7.50;99.90;;;;;;4988108;28;20128;-56
2023/03/16 11:41:37;;;;;;;7.82;3.83;;;7.50;99.90;;;;;;5010889;28;20111;-56
2023/03/16 11:44:08;;;;;;;9.25;4.68;;;7.70;99.90;;;;;;4985420;28;20055;-56
2023/03/16 11:46:41;;;;;;;8.27;4.32;;;7.80;99.90;;;;;;5001729;28;20046;-54
2023/03/16 11:49:17;;;;;;;11.57;4.80;;;7.90;99.90;;;;;;5010283;28;20060;-55
2023/03/16 11:51:58;;;;;;;10.90;4.18;;;8.00;99.90;;;;;;5011486;28;20042;-56
2023/03/16 11:54:47;;;;;;;9.07;4.25;;;8.10;99.90;;;;;;5000854;28;20177;-55
2023/03/16 11:57:40;;;;;;;5.68;3.88;;;8.10;99.90;;;;;;4990070;28;20048;-59
2023/03/16 12:00:39;;;;;;;5.70;3.80;;;8.30;99.90;;;;;;4989325;28;20054;-52
2023/03/16 12:03:46;;;;;;;10.20;4.50;;;8.30;99.90;;;;;;4996064;28;20108;-53
2023/03/16 12:06:13;;;;;;;8.48;3.83;;;8.30;99.90;;;;;;5013338;28;20473;-57
2023/03/16 12:09:11;;;;;;;8.48;4.38;;;8.40;99.90;;;;;;5009874;28;20420;-55
2023/03/16 12:11:51;;;;;;;7.95;3.67;;;8.40;99.90;;;;;;4989317;28;20152;-56
2023/03/16 12:14:39;;;;;;;6.03;3.28;;;8.40;99.90;;;;;;4980422;28;20054;-57
2023/03/16 12:17:26;;;;;;;7.28;3.95;;;8.50;99.90;;;;;;4982776;28;20042;-55
2023/03/16 12:20:12;;;;;;;7.10;4.15;;;8.60;99.90;;;;;;4983380;28;20046;-56
2023/03/16 12:22:51;;;;;;;7.20;3.90;;;8.60;99.90;;;;;;5007152;28;20041;-56
2023/03/16 12:25:21;;;;;;;8.43;4.00;;;8.70;99.90;;;;;;5005442;28;20125;-58
2023/03/16 12:27:59;;;;;;;9.23;4.55;;;8.70;99.90;;;;;;4977980;28;20038;-55
2023/03/16 12:33:27;;;;;;;7.80;4.15;;;8.70;99.90;;;;;;5017379;28;20266;-56
2023/03/16 12:35:52;;;;;;;9.80;4.00;;;8.70;99.90;;;;;;5023800;28;20061;-55
2023/03/16 12:38:43;;;;;;;8.25;4.45;;;8.70;99.90;;;;;;5010752;28;20492;-55
2023/03/16 12:41:09;;;;;;;7.95;3.83;;;8.70;99.90;;;;;;4989036;28;20052;-54
2023/03/16 12:43:59;;;;;;;7.90;4.70;;;8.70;99.90;;;;;;5009369;28;20480;-54
2023/03/16 12:46:44;;;;;;;7.38;4.35;;;8.70;99.90;;;;;;5013444;28;20572;-51
2023/03/16 12:49:10;;;;;;;8.50;4.45;;;8.70;99.90;;;;;;5008561;28;20443;-55
2023/03/16 12:51:42;;;;;;;8.82;4.28;;;8.70;99.90;;;;;;4995398;28;20038;-53
2023/03/16 12:54:22;;;;;;;7.63;4.50;;;8.70;99.90;;;;;;5009878;28;20193;-54
2023/03/16 12:56:50;;;;;;;7.80;4.38;;;8.80;99.90;;;;;;4993405;28;20120;-52
2023/03/16 12:59:24;;;;;;;6.57;3.92;;;8.80;99.90;;;;;;4989205;28;20044;-58
2023/03/16 13:01:51;;;;;;;;;;;8.80;99.90;;;;;;4991853;28;20050;-57
2023/03/16 13:04:22;;;;;;;7.70;4.15;;;8.80;99.90;;;;;;4991745;28;19917;-54
2023/03/16 13:07:04;;;;;;;10.70;5.43;;;8.80;99.90;;;;;;4991282;28;20037;-57
2023/03/16 13:09:31;;;;;;;7.57;4.32;;;8.90;99.90;;;;;;5009252;28;20046;-52
2023/03/16 13:12:03;;;;;;;5.78;3.53;;;8.90;99.90;;;;;;4989598;28;20120;-55
2023/03/16 13:14:34;;;;;;;5.95;3.55;;;9.00;99.90;;;;;;5006762;28;20072;-52